sensor_id;sensor_type;location;lat;lon;timestamp;P1;durP1;ratioP1;P2;durP2;ratioP2
84295;SDS011;74464;42.688;23.304;2023-12-20T00:01:37;150.88;;;76.68;;
84295;SDS011;74464;42.688;23.304;2023-12-20T00:04:04;147.07;;;74.43;;
84295;SDS011;74464;42.688;23.304;2023-12-20T00:06:30;137.10;;;73.72;;
84295;SDS011;74464;42.688;23.304;2023-12-20T00:08:56;145.13;;;70.20;;
84295;SDS011;74464;42.688;23.304;2023-12-20T00:11:23;133.23;;;71.15;;
84295;SDS011;74464;42.688;23.304;2023-12-20T00:13:51;147.93;;;72.53;;
84295;SDS011;74464;42.688;23.304;2023-12-20T00:16:17;158.18;;;82.63;;
84295;SDS011;74464;42.688;23.304;2023-12-20T00:18:44;155.65;;;77.22;;
84295;SDS011;74464;42.688;23.304;2023-12-20T00:21:10;143.27;;;70.70;;
84295;SDS011;74464;42.688;23.304;2023-12-20T00:23:37;143.07;;;72.60;;
84295;SDS011;74464;42.688;23.304;2023-12-20T00:26:05;132.35;;;69.22;;
84295;SDS011;74464;42.688;23.304;2023-12-20T00:28:31;138.45;;;70.50;;
84295;SDS011;74464;42.688;23.304;2023-12-20T00:30:57;140.65;;;74.53;;
84295;SDS011;74464;42.688;23.304;2023-12-20T00:33:24;136.70;;;69.55;;
84295;SDS011;74464;42.688;23.304;2023-12-20T00:35:50;130.68;;;71.00;;
84295;SDS011;74464;42.688;23.304;2023-12-20T00:38:15;115.13;;;64.35;;
84295;SDS011;74464;42.688;23.304;2023-12-20T00:40:41;134.25;;;65.63;;
84295;SDS011;74464;42.688;23.304;2023-12-20T00:43:06;127.03;;;63.88;;
84295;SDS011;74464;42.688;23.304;2023-12-20T00:45:35;114.47;;;60.67;;
84295;SDS011;74464;42.688;23.304;2023-12-20T00:48:04;130.18;;;63.65;;
84295;SDS011;74464;42.688;23.304;2023-12-20T00:50:31;120.30;;;58.88;;
84295;SDS011;74464;42.688;23.304;2023-12-20T00:53:03;121.03;;;61.17;;
84295;SDS011;74464;42.688;23.304;2023-12-20T00:55:29;118.72;;;62.20;;
84295;SDS011;74464;42.688;23.304;2023-12-20T00:57:54;125.55;;;60.38;;
84295;SDS011;74464;42.688;23.304;2023-12-20T01:00:20;110.25;;;57.17;;
84295;SDS011;74464;42.688;23.304;2023-12-20T01:02:46;117.90;;;61.40;;
84295;SDS011;74464;42.688;23.304;2023-12-20T01:05:14;142.90;;;73.93;;
84295;SDS011;74464;42.688;23.304;2023-12-20T01:07:40;128.88;;;64.57;;
84295;SDS011;74464;42.688;23.304;2023-12-20T01:10:05;123.95;;;60.97;;
84295;SDS011;74464;42.688;23.304;2023-12-20T01:12:31;134.27;;;64.57;;
84295;SDS011;74464;42.688;23.304;2023-12-20T01:14:57;138.18;;;72.13;;
84295;SDS011;74464;42.688;23.304;2023-12-20T01:17:23;131.52;;;66.63;;
84295;SDS011;74464;42.688;23.304;2023-12-20T01:19:49;126.30;;;63.60;;
84295;SDS011;74464;42.688;23.304;2023-12-20T01:22:15;129.50;;;62.97;;
84295;SDS011;74464;42.688;23.304;2023-12-20T01:24:40;132.15;;;64.78;;
84295;SDS011;74464;42.688;23.304;2023-12-20T01:27:06;124.70;;;63.75;;
84295;SDS011;74464;42.688;23.304;2023-12-20T01:29:31;122.13;;;59.80;;
84295;SDS011;74464;42.688;23.304;2023-12-20T01:31:57;136.20;;;68.05;;
84295;SDS011;74464;42.688;23.304;2023-12-20T01:34:23;132.80;;;69.32;;
84295;SDS011;74464;42.688;23.304;2023-12-20T01:36:48;140.98;;;70.90;;
84295;SDS011;74464;42.688;23.304;2023-12-20T01:39:14;127.45;;;65.07;;
84295;SDS011;74464;42.688;23.304;2023-12-20T01:41:41;114.82;;;58.20;;
84295;SDS011;74464;42.688;23.304;2023-12-20T01:44:06;115.28;;;61.35;;
84295;SDS011;74464;42.688;23.304;2023-12-20T01:46:34;113.50;;;56.63;;
84295;SDS011;74464;42.688;23.304;2023-12-20T01:49:01;131.20;;;65.32;;
84295;SDS011;74464;42.688;23.304;2023-12-20T01:51:27;131.00;;;63.92;;
84295;SDS011;74464;42.688;23.304;2023-12-20T01:53:54;118.70;;;60.83;;
84295;SDS011;74464;42.688;23.304;2023-12-20T01:56:22;149.75;;;70.07;;
84295;SDS011;74464;42.688;23.304;2023-12-20T01:58:48;47.70;;;27.23;;
84295;SDS011;74464;42.688;23.304;2023-12-20T02:01:14;98.40;;;49.40;;
84295;SDS011;74464;42.688;23.304;2023-12-20T02:03:41;65.60;;;33.60;;
84295;SDS011;74464;42.688;23.304;2023-12-20T02:06:07;104.20;;;51.80;;
84295;SDS011;74464;42.688;23.304;2023-12-20T02:08:34;110.07;;;56.05;;
84295;SDS011;74464;42.688;23.304;2023-12-20T02:11:01;106.20;;;53.38;;
84295;SDS011;74464;42.688;23.304;2023-12-20T02:13:26;111.43;;;56.30;;
84295;SDS011;74464;42.688;23.304;2023-12-20T02:15:52;109.30;;;54.55;;
84295;SDS011;74464;42.688;23.304;2023-12-20T02:18:19;122.07;;;56.60;;
84295;SDS011;74464;42.688;23.304;2023-12-20T02:20:45;104.38;;;50.47;;
84295;SDS011;74464;42.688;23.304;2023-12-20T02:23:10;109.82;;;53.97;;
84295;SDS011;74464;42.688;23.304;2023-12-20T02:25:36;100.43;;;51.97;;
84295;SDS011;74464;42.688;23.304;2023-12-20T02:28:02;129.15;;;61.08;;
84295;SDS011;74464;42.688;23.304;2023-12-20T02:30:29;118.25;;;53.88;;
84295;SDS011;74464;42.688;23.304;2023-12-20T02:32:55;96.55;;;46.47;;
84295;SDS011;74464;42.688;23.304;2023-12-20T02:35:21;101.68;;;47.78;;
84295;SDS011;74464;42.688;23.304;2023-12-20T02:37:47;88.05;;;41.90;;
84295;SDS011;74464;42.688;23.304;2023-12-20T02:40:12;97.78;;;48.30;;
84295;SDS011;74464;42.688;23.304;2023-12-20T02:42:38;111.55;;;52.17;;
84295;SDS011;74464;42.688;23.304;2023-12-20T02:45:04;109.05;;;52.88;;
84295;SDS011;74464;42.688;23.304;2023-12-20T02:47:31;98.07;;;46.55;;
84295;SDS011;74464;42.688;23.304;2023-12-20T02:49:57;64.75;;;32.75;;
84295;SDS011;74464;42.688;23.304;2023-12-20T02:52:23;90.68;;;43.85;;
84295;SDS011;74464;42.688;23.304;2023-12-20T02:54:49;90.68;;;44.67;;
84295;SDS011;74464;42.688;23.304;2023-12-20T02:57:15;91.07;;;44.63;;
84295;SDS011;74464;42.688;23.304;2023-12-20T02:59:40;79.47;;;40.63;;
84295;SDS011;74464;42.688;23.304;2023-12-20T03:02:06;96.55;;;45.90;;
84295;SDS011;74464;42.688;23.304;2023-12-20T03:04:31;96.45;;;44.45;;
84295;SDS011;74464;42.688;23.304;2023-12-20T03:06:57;49.92;;;23.52;;
84295;SDS011;74464;42.688;23.304;2023-12-20T03:09:23;173.38;;;77.55;;
84295;SDS011;74464;42.688;23.304;2023-12-20T03:11:48;73.97;;;33.45;;
84295;SDS011;74464;42.688;23.304;2023-12-20T03:14:15;62.92;;;28.90;;
84295;SDS011;74464;42.688;23.304;2023-12-20T03:16:41;65.53;;;30.27;;
84295;SDS011;74464;42.688;23.304;2023-12-20T03:19:06;90.05;;;36.55;;
84295;SDS011;74464;42.688;23.304;2023-12-20T03:21:34;81.60;;;39.45;;
84295;SDS011;74464;42.688;23.304;2023-12-20T03:24:00;66.75;;;30.25;;
84295;SDS011;74464;42.688;23.304;2023-12-20T03:26:26;49.45;;;22.38;;
84295;SDS011;74464;42.688;23.304;2023-12-20T03:28:52;103.22;;;39.72;;
84295;SDS011;74464;42.688;23.304;2023-12-20T03:31:17;80.25;;;32.65;;
84295;SDS011;74464;42.688;23.304;2023-12-20T03:33:43;61.45;;;26.90;;
84295;SDS011;74464;42.688;23.304;2023-12-20T03:36:09;70.30;;;23.08;;
84295;SDS011;74464;42.688;23.304;2023-12-20T03:38:35;112.43;;;35.85;;
84295;SDS011;74464;42.688;23.304;2023-12-20T03:41:01;124.70;;;35.05;;
84295;SDS011;74464;42.688;23.304;2023-12-20T03:43:27;81.65;;;33.92;;
84295;SDS011;74464;42.688;23.304;2023-12-20T03:45:52;90.95;;;35.85;;
84295;SDS011;74464;42.688;23.304;2023-12-20T03:48:18;93.28;;;38.20;;
84295;SDS011;74464;42.688;23.304;2023-12-20T03:50:44;89.40;;;39.05;;
84295;SDS011;74464;42.688;23.304;2023-12-20T03:53:10;88.05;;;34.75;;
84295;SDS011;74464;42.688;23.304;2023-12-20T03:55:36;95.35;;;38.95;;
84295;SDS011;74464;42.688;23.304;2023-12-20T03:58:02;83.15;;;32.97;;
84295;SDS011;74464;42.688;23.304;2023-12-20T04:00:29;78.65;;;34.05;;
84295;SDS011;74464;42.688;23.304;2023-12-20T04:02:54;71.38;;;29.25;;
84295;SDS011;74464;42.688;23.304;2023-12-20T04:05:20;110.10;;;42.85;;
84295;SDS011;74464;42.688;23.304;2023-12-20T04:07:45;82.03;;;36.60;;
84295;SDS011;74464;42.688;23.304;2023-12-20T04:10:11;57.88;;;29.20;;
84295;SDS011;74464;42.688;23.304;2023-12-20T04:12:37;69.78;;;30.17;;
84295;SDS011;74464;42.688;23.304;2023-12-20T04:15:03;86.97;;;35.63;;
84295;SDS011;74464;42.688;23.304;2023-12-20T04:17:34;91.22;;;30.48;;
84295;SDS011;74464;42.688;23.304;2023-12-20T04:20:01;125.47;;;40.25;;
84295;SDS011;74464;42.688;23.304;2023-12-20T04:22:27;103.40;;;39.05;;
84295;SDS011;74464;42.688;23.304;2023-12-20T04:24:52;93.47;;;39.63;;
84295;SDS011;74464;42.688;23.304;2023-12-20T04:27:18;96.03;;;42.67;;
84295;SDS011;74464;42.688;23.304;2023-12-20T04:29:44;93.07;;;39.88;;
84295;SDS011;74464;42.688;23.304;2023-12-20T04:32:09;86.20;;;39.65;;
84295;SDS011;74464;42.688;23.304;2023-12-20T04:34:35;82.40;;;36.63;;
84295;SDS011;74464;42.688;23.304;2023-12-20T04:37:01;36.67;;;18.83;;
84295;SDS011;74464;42.688;23.304;2023-12-20T04:39:27;23.08;;;13.07;;
84295;SDS011;74464;42.688;23.304;2023-12-20T04:41:53;88.28;;;34.22;;
84295;SDS011;74464;42.688;23.304;2023-12-20T04:44:21;66.47;;;26.75;;
84295;SDS011;74464;42.688;23.304;2023-12-20T04:46:47;122.80;;;39.92;;
84295;SDS011;74464;42.688;23.304;2023-12-20T04:49:13;79.82;;;31.40;;
84295;SDS011;74464;42.688;23.304;2023-12-20T04:51:39;159.18;;;45.15;;
84295;SDS011;74464;42.688;23.304;2023-12-20T04:54:05;123.75;;;49.22;;
84295;SDS011;74464;42.688;23.304;2023-12-20T04:56:31;115.22;;;40.47;;
84295;SDS011;74464;42.688;23.304;2023-12-20T04:58:57;83.00;;;29.58;;
84295;SDS011;74464;42.688;23.304;2023-12-20T05:01:22;145.68;;;47.90;;
84295;SDS011;74464;42.688;23.304;2023-12-20T05:03:49;86.50;;;34.10;;
84295;SDS011;74464;42.688;23.304;2023-12-20T05:06:15;74.68;;;28.38;;
84295;SDS011;74464;42.688;23.304;2023-12-20T05:08:41;81.60;;;31.85;;
84295;SDS011;74464;42.688;23.304;2023-12-20T05:11:07;149.10;;;45.03;;
84295;SDS011;74464;42.688;23.304;2023-12-20T05:13:33;141.25;;;46.22;;
84295;SDS011;74464;42.688;23.304;2023-12-20T05:15:58;141.73;;;48.50;;
84295;SDS011;74464;42.688;23.304;2023-12-20T05:18:24;119.90;;;44.95;;
84295;SDS011;74464;42.688;23.304;2023-12-20T05:20:50;128.57;;;42.40;;
84295;SDS011;74464;42.688;23.304;2023-12-20T05:23:16;97.05;;;34.60;;
84295;SDS011;74464;42.688;23.304;2023-12-20T05:25:42;84.70;;;36.25;;
84295;SDS011;74464;42.688;23.304;2023-12-20T05:28:12;143.55;;;46.55;;
84295;SDS011;74464;42.688;23.304;2023-12-20T05:31:06;120.07;;;43.80;;
84295;SDS011;74464;42.688;23.304;2023-12-20T05:33:34;115.82;;;44.20;;
84295;SDS011;74464;42.688;23.304;2023-12-20T05:36:00;105.07;;;40.88;;
84295;SDS011;74464;42.688;23.304;2023-12-20T05:38:25;138.88;;;44.55;;
84295;SDS011;74464;42.688;23.304;2023-12-20T05:40:51;101.38;;;36.92;;
84295;SDS011;74464;42.688;23.304;2023-12-20T05:43:17;81.60;;;30.85;;
84295;SDS011;74464;42.688;23.304;2023-12-20T05:45:43;65.75;;;31.08;;
84295;SDS011;74464;42.688;23.304;2023-12-20T05:48:08;160.48;;;46.28;;
84295;SDS011;74464;42.688;23.304;2023-12-20T05:50:34;98.25;;;37.55;;
84295;SDS011;74464;42.688;23.304;2023-12-20T05:53:00;127.75;;;40.28;;
84295;SDS011;74464;42.688;23.304;2023-12-20T05:55:26;168.35;;;45.78;;
84295;SDS011;74464;42.688;23.304;2023-12-20T05:57:51;122.18;;;40.92;;
84295;SDS011;74464;42.688;23.304;2023-12-20T06:00:17;137.15;;;43.88;;
84295;SDS011;74464;42.688;23.304;2023-12-20T06:02:43;102.35;;;34.75;;
84295;SDS011;74464;42.688;23.304;2023-12-20T06:05:09;54.28;;;21.40;;
84295;SDS011;74464;42.688;23.304;2023-12-20T06:07:35;129.23;;;40.75;;
84295;SDS011;74464;42.688;23.304;2023-12-20T06:10:00;49.58;;;21.50;;
84295;SDS011;74464;42.688;23.304;2023-12-20T06:12:26;67.72;;;27.50;;
84295;SDS011;74464;42.688;23.304;2023-12-20T06:14:53;122.47;;;45.00;;
84295;SDS011;74464;42.688;23.304;2023-12-20T06:17:19;108.22;;;40.47;;
84295;SDS011;74464;42.688;23.304;2023-12-20T06:19:46;135.32;;;50.33;;
84295;SDS011;74464;42.688;23.304;2023-12-20T06:22:13;160.80;;;49.50;;
84295;SDS011;74464;42.688;23.304;2023-12-20T06:24:39;104.75;;;39.55;;
84295;SDS011;74464;42.688;23.304;2023-12-20T06:27:05;126.50;;;36.83;;
84295;SDS011;74464;42.688;23.304;2023-12-20T06:29:31;58.28;;;22.33;;
84295;SDS011;74464;42.688;23.304;2023-12-20T06:31:57;155.43;;;45.55;;
84295;SDS011;74464;42.688;23.304;2023-12-20T06:34:24;172.95;;;57.35;;
84295;SDS011;74464;42.688;23.304;2023-12-20T06:36:50;141.05;;;48.25;;
84295;SDS011;74464;42.688;23.304;2023-12-20T06:39:17;165.32;;;46.58;;
84295;SDS011;74464;42.688;23.304;2023-12-20T06:41:44;111.35;;;38.42;;
84295;SDS011;74464;42.688;23.304;2023-12-20T06:44:10;58.53;;;27.38;;
84295;SDS011;74464;42.688;23.304;2023-12-20T06:46:36;97.93;;;38.92;;
84295;SDS011;74464;42.688;23.304;2023-12-20T06:49:01;34.10;;;16.95;;
84295;SDS011;74464;42.688;23.304;2023-12-20T06:51:29;131.35;;;46.85;;
84295;SDS011;74464;42.688;23.304;2023-12-20T06:53:56;54.00;;;21.17;;
84295;SDS011;74464;42.688;23.304;2023-12-20T06:56:21;137.25;;;42.72;;
84295;SDS011;74464;42.688;23.304;2023-12-20T06:58:49;122.50;;;45.70;;
84295;SDS011;74464;42.688;23.304;2023-12-20T07:01:15;137.68;;;47.85;;
84295;SDS011;74464;42.688;23.304;2023-12-20T07:03:41;104.82;;;41.45;;
84295;SDS011;74464;42.688;23.304;2023-12-20T07:06:07;104.25;;;39.28;;
84295;SDS011;74464;42.688;23.304;2023-12-20T07:08:33;116.07;;;44.38;;
84295;SDS011;74464;42.688;23.304;2023-12-20T07:10:59;108.70;;;39.60;;
84295;SDS011;74464;42.688;23.304;2023-12-20T07:13:25;100.20;;;39.30;;
84295;SDS011;74464;42.688;23.304;2023-12-20T07:15:51;132.68;;;48.35;;
84295;SDS011;74464;42.688;23.304;2023-12-20T07:18:17;68.18;;;27.88;;
84295;SDS011;74464;42.688;23.304;2023-12-20T07:20:43;89.22;;;36.05;;
84295;SDS011;74464;42.688;23.304;2023-12-20T07:23:08;124.18;;;44.00;;
84295;SDS011;74464;42.688;23.304;2023-12-20T07:25:34;109.70;;;40.42;;
84295;SDS011;74464;42.688;23.304;2023-12-20T07:28:00;84.57;;;35.75;;
84295;SDS011;74464;42.688;23.304;2023-12-20T07:30:25;116.22;;;44.33;;
84295;SDS011;74464;42.688;23.304;2023-12-20T07:32:51;119.68;;;46.40;;
84295;SDS011;74464;42.688;23.304;2023-12-20T07:35:19;17.38;;;12.43;;
84295;SDS011;74464;42.688;23.304;2023-12-20T07:37:44;75.60;;;27.83;;
84295;SDS011;74464;42.688;23.304;2023-12-20T07:40:10;95.95;;;39.15;;
84295;SDS011;74464;42.688;23.304;2023-12-20T07:42:36;66.05;;;29.67;;
84295;SDS011;74464;42.688;23.304;2023-12-20T07:45:01;141.48;;;49.60;;
84295;SDS011;74464;42.688;23.304;2023-12-20T07:47:29;126.93;;;46.47;;
84295;SDS011;74464;42.688;23.304;2023-12-20T07:49:55;67.13;;;28.10;;
84295;SDS011;74464;42.688;23.304;2023-12-20T07:52:21;85.85;;;35.97;;
84295;SDS011;74464;42.688;23.304;2023-12-20T07:54:52;141.32;;;49.13;;
84295;SDS011;74464;42.688;23.304;2023-12-20T07:57:18;87.40;;;36.28;;
84295;SDS011;74464;42.688;23.304;2023-12-20T07:59:45;116.57;;;42.08;;
84295;SDS011;74464;42.688;23.304;2023-12-20T08:02:13;45.92;;;25.50;;
84295;SDS011;74464;42.688;23.304;2023-12-20T08:04:38;110.45;;;41.03;;
84295;SDS011;74464;42.688;23.304;2023-12-20T08:07:04;127.35;;;45.53;;
84295;SDS011;74464;42.688;23.304;2023-12-20T08:09:30;38.05;;;20.60;;
84295;SDS011;74464;42.688;23.304;2023-12-20T08:11:56;146.43;;;50.15;;
84295;SDS011;74464;42.688;23.304;2023-12-20T08:14:24;74.40;;;28.52;;
84295;SDS011;74464;42.688;23.304;2023-12-20T08:16:50;130.88;;;48.00;;
84295;SDS011;74464;42.688;23.304;2023-12-20T08:19:15;99.13;;;39.67;;
84295;SDS011;74464;42.688;23.304;2023-12-20T08:21:42;139.68;;;48.05;;
84295;SDS011;74464;42.688;23.304;2023-12-20T08:24:08;148.55;;;55.72;;
84295;SDS011;74464;42.688;23.304;2023-12-20T08:26:33;98.45;;;35.15;;
84295;SDS011;74464;42.688;23.304;2023-12-20T08:29:00;135.88;;;48.10;;
84295;SDS011;74464;42.688;23.304;2023-12-20T08:31:26;133.65;;;49.88;;
84295;SDS011;74464;42.688;23.304;2023-12-20T08:33:52;92.43;;;41.50;;
84295;SDS011;74464;42.688;23.304;2023-12-20T08:36:19;125.78;;;47.85;;
84295;SDS011;74464;42.688;23.304;2023-12-20T08:38:47;128.75;;;48.17;;
84295;SDS011;74464;42.688;23.304;2023-12-20T08:41:13;119.15;;;45.85;;
84295;SDS011;74464;42.688;23.304;2023-12-20T08:43:39;114.93;;;45.40;;
84295;SDS011;74464;42.688;23.304;2023-12-20T08:46:07;105.78;;;48.30;;
84295;SDS011;74464;42.688;23.304;2023-12-20T08:48:35;118.97;;;45.95;;
84295;SDS011;74464;42.688;23.304;2023-12-20T08:51:00;87.80;;;39.83;;
84295;SDS011;74464;42.688;23.304;2023-12-20T08:53:26;113.90;;;43.97;;
84295;SDS011;74464;42.688;23.304;2023-12-20T08:55:52;116.20;;;46.17;;
84295;SDS011;74464;42.688;23.304;2023-12-20T08:58:17;123.60;;;47.92;;
84295;SDS011;74464;42.688;23.304;2023-12-20T09:00:43;115.35;;;45.15;;
84295;SDS011;74464;42.688;23.304;2023-12-20T09:03:10;100.07;;;43.65;;
84295;SDS011;74464;42.688;23.304;2023-12-20T09:05:36;117.85;;;47.00;;
84295;SDS011;74464;42.688;23.304;2023-12-20T09:08:01;129.30;;;50.50;;
84295;SDS011;74464;42.688;23.304;2023-12-20T09:10:27;117.05;;;50.53;;
84295;SDS011;74464;42.688;23.304;2023-12-20T09:12:53;119.90;;;50.47;;
84295;SDS011;74464;42.688;23.304;2023-12-20T09:15:25;124.22;;;51.80;;
84295;SDS011;74464;42.688;23.304;2023-12-20T09:17:52;98.95;;;39.63;;
84295;SDS011;74464;42.688;23.304;2023-12-20T09:20:18;106.82;;;42.78;;
84295;SDS011;74464;42.688;23.304;2023-12-20T09:22:44;110.43;;;47.40;;
84295;SDS011;74464;42.688;23.304;2023-12-20T09:25:10;108.32;;;46.42;;
84295;SDS011;74464;42.688;23.304;2023-12-20T09:27:39;111.50;;;45.53;;
84295;SDS011;74464;42.688;23.304;2023-12-20T09:30:05;128.50;;;49.97;;
84295;SDS011;74464;42.688;23.304;2023-12-20T09:32:31;131.15;;;51.97;;
84295;SDS011;74464;42.688;23.304;2023-12-20T09:34:57;116.65;;;46.10;;
84295;SDS011;74464;42.688;23.304;2023-12-20T09:37:27;100.97;;;44.78;;
84295;SDS011;74464;42.688;23.304;2023-12-20T09:39:53;114.75;;;50.65;;
84295;SDS011;74464;42.688;23.304;2023-12-20T09:45:28;135.32;;;53.38;;
84295;SDS011;74464;42.688;23.304;2023-12-20T09:47:56;110.03;;;46.60;;
84295;SDS011;74464;42.688;23.304;2023-12-20T09:50:23;124.85;;;51.25;;
84295;SDS011;74464;42.688;23.304;2023-12-20T09:52:49;106.80;;;48.28;;
84295;SDS011;74464;42.688;23.304;2023-12-20T09:55:20;110.03;;;45.58;;
84295;SDS011;74464;42.688;23.304;2023-12-20T09:57:47;105.55;;;48.05;;
84295;SDS011;74464;42.688;23.304;2023-12-20T10:00:13;118.15;;;49.55;;
84295;SDS011;74464;42.688;23.304;2023-12-20T10:02:53;74.55;;;35.63;;
84295;SDS011;74464;42.688;23.304;2023-12-20T10:05:25;110.28;;;50.25;;
84295;SDS011;74464;42.688;23.304;2023-12-20T10:07:56;109.25;;;45.75;;
84295;SDS011;74464;42.688;23.304;2023-12-20T10:10:23;98.70;;;45.30;;
84295;SDS011;74464;42.688;23.304;2023-12-20T10:13:04;106.25;;;48.65;;
84295;SDS011;74464;42.688;23.304;2023-12-20T10:15:36;100.80;;;46.42;;
84295;SDS011;74464;42.688;23.304;2023-12-20T10:18:05;82.38;;;38.25;;
84295;SDS011;74464;42.688;23.304;2023-12-20T10:20:31;106.15;;;47.60;;
84295;SDS011;74464;42.688;23.304;2023-12-20T10:22:57;97.13;;;45.78;;
84295;SDS011;74464;42.688;23.304;2023-12-20T10:25:24;104.03;;;46.22;;
84295;SDS011;74464;42.688;23.304;2023-12-20T10:27:50;96.40;;;42.58;;
84295;SDS011;74464;42.688;23.304;2023-12-20T10:33:07;116.93;;;52.38;;
84295;SDS011;74464;42.688;23.304;2023-12-20T10:35:33;124.75;;;54.30;;
84295;SDS011;74464;42.688;23.304;2023-12-20T10:38:03;102.35;;;46.28;;
84295;SDS011;74464;42.688;23.304;2023-12-20T10:40:30;111.00;;;48.00;;
84295;SDS011;74464;42.688;23.304;2023-12-20T10:42:58;112.22;;;53.65;;
84295;SDS011;74464;42.688;23.304;2023-12-20T10:45:26;117.35;;;52.85;;
84295;SDS011;74464;42.688;23.304;2023-12-20T10:47:53;109.50;;;52.38;;
84295;SDS011;74464;42.688;23.304;2023-12-20T10:50:19;100.43;;;48.65;;
84295;SDS011;74464;42.688;23.304;2023-12-20T10:52:46;113.57;;;55.33;;
84295;SDS011;74464;42.688;23.304;2023-12-20T10:55:13;116.25;;;52.30;;
84295;SDS011;74464;42.688;23.304;2023-12-20T10:57:39;122.35;;;55.95;;
84295;SDS011;74464;42.688;23.304;2023-12-20T11:00:06;129.10;;;56.42;;
84295;SDS011;74464;42.688;23.304;2023-12-20T11:02:39;114.10;;;54.28;;
84295;SDS011;74464;42.688;23.304;2023-12-20T11:05:26;118.18;;;51.25;;
84295;SDS011;74464;42.688;23.304;2023-12-20T11:08:17;124.55;;;53.10;;
84295;SDS011;74464;42.688;23.304;2023-12-20T11:13:21;127.28;;;57.08;;
84295;SDS011;74464;42.688;23.304;2023-12-20T11:15:53;111.68;;;47.65;;
84295;SDS011;74464;42.688;23.304;2023-12-20T11:18:19;126.40;;;60.58;;
84295;SDS011;74464;42.688;23.304;2023-12-20T11:20:44;123.70;;;57.70;;
84295;SDS011;74464;42.688;23.304;2023-12-20T11:23:11;121.53;;;54.25;;
84295;SDS011;74464;42.688;23.304;2023-12-20T11:28:32;134.25;;;58.00;;
84295;SDS011;74464;42.688;23.304;2023-12-20T11:30:58;135.02;;;55.95;;
84295;SDS011;74464;42.688;23.304;2023-12-20T11:36:00;110.68;;;48.50;;
84295;SDS011;74464;42.688;23.304;2023-12-20T11:38:37;132.15;;;53.97;;
84295;SDS011;74464;42.688;23.304;2023-12-20T11:41:05;110.78;;;51.40;;
84295;SDS011;74464;42.688;23.304;2023-12-20T11:46:09;111.45;;;49.67;;
84295;SDS011;74464;42.688;23.304;2023-12-20T11:48:35;119.20;;;48.45;;
84295;SDS011;74464;42.688;23.304;2023-12-20T11:51:13;114.78;;;48.88;;
84295;SDS011;74464;42.688;23.304;2023-12-20T11:53:39;118.25;;;51.65;;
84295;SDS011;74464;42.688;23.304;2023-12-20T11:56:06;103.75;;;46.20;;
84295;SDS011;74464;42.688;23.304;2023-12-20T11:58:32;104.32;;;45.45;;
84295;SDS011;74464;42.688;23.304;2023-12-20T12:00:58;106.80;;;43.60;;
84295;SDS011;74464;42.688;23.304;2023-12-20T12:03:24;91.60;;;40.60;;
84295;SDS011;74464;42.688;23.304;2023-12-20T12:05:50;87.88;;;41.20;;
84295;SDS011;74464;42.688;23.304;2023-12-20T12:08:17;97.85;;;40.28;;
84295;SDS011;74464;42.688;23.304;2023-12-20T12:10:47;81.50;;;36.97;;
84295;SDS011;74464;42.688;23.304;2023-12-20T12:13:13;95.72;;;40.13;;
84295;SDS011;74464;42.688;23.304;2023-12-20T12:15:42;108.82;;;47.08;;
84295;SDS011;74464;42.688;23.304;2023-12-20T12:18:09;103.47;;;45.17;;
84295;SDS011;74464;42.688;23.304;2023-12-20T12:20:35;106.22;;;42.13;;
84295;SDS011;74464;42.688;23.304;2023-12-20T12:23:01;106.32;;;47.25;;
84295;SDS011;74464;42.688;23.304;2023-12-20T12:25:29;106.82;;;43.65;;
84295;SDS011;74464;42.688;23.304;2023-12-20T12:27:56;104.78;;;45.10;;
84295;SDS011;74464;42.688;23.304;2023-12-20T12:30:23;93.15;;;40.85;;
84295;SDS011;74464;42.688;23.304;2023-12-20T12:32:51;100.65;;;45.13;;
84295;SDS011;74464;42.688;23.304;2023-12-20T12:35:18;108.03;;;43.72;;
84295;SDS011;74464;42.688;23.304;2023-12-20T12:37:44;110.65;;;44.80;;
84295;SDS011;74464;42.688;23.304;2023-12-20T12:40:11;97.25;;;47.25;;
84295;SDS011;74464;42.688;23.304;2023-12-20T12:42:38;95.03;;;40.78;;
84295;SDS011;74464;42.688;23.304;2023-12-20T12:45:05;108.03;;;48.30;;
84295;SDS011;74464;42.688;23.304;2023-12-20T12:47:31;92.65;;;40.63;;
84295;SDS011;74464;42.688;23.304;2023-12-20T12:49:57;104.10;;;45.85;;
84295;SDS011;74464;42.688;23.304;2023-12-20T12:52:23;94.10;;;41.90;;
84295;SDS011;74464;42.688;23.304;2023-12-20T12:54:49;83.28;;;35.55;;
84295;SDS011;74464;42.688;23.304;2023-12-20T12:57:15;103.18;;;45.22;;
84295;SDS011;74464;42.688;23.304;2023-12-20T12:59:41;102.65;;;42.53;;
84295;SDS011;74464;42.688;23.304;2023-12-20T13:02:09;108.72;;;41.75;;
84295;SDS011;74464;42.688;23.304;2023-12-20T13:04:34;112.40;;;44.10;;
84295;SDS011;74464;42.688;23.304;2023-12-20T13:07:00;110.57;;;47.38;;
84295;SDS011;74464;42.688;23.304;2023-12-20T13:09:27;98.68;;;43.63;;
84295;SDS011;74464;42.688;23.304;2023-12-20T13:11:53;95.10;;;42.13;;
84295;SDS011;74464;42.688;23.304;2023-12-20T13:14:18;97.90;;;42.05;;
84295;SDS011;74464;42.688;23.304;2023-12-20T13:16:44;98.60;;;41.78;;
84295;SDS011;74464;42.688;23.304;2023-12-20T13:19:10;94.55;;;42.08;;
84295;SDS011;74464;42.688;23.304;2023-12-20T13:21:36;102.93;;;44.80;;
84295;SDS011;74464;42.688;23.304;2023-12-20T13:24:02;102.60;;;43.10;;
84295;SDS011;74464;42.688;23.304;2023-12-20T13:26:28;107.22;;;43.05;;
84295;SDS011;74464;42.688;23.304;2023-12-20T13:28:54;103.40;;;44.70;;
84295;SDS011;74464;42.688;23.304;2023-12-20T13:31:20;110.43;;;43.97;;
84295;SDS011;74464;42.688;23.304;2023-12-20T13:33:47;91.97;;;40.22;;
84295;SDS011;74464;42.688;23.304;2023-12-20T13:36:13;82.88;;;36.65;;
84295;SDS011;74464;42.688;23.304;2023-12-20T13:38:39;92.22;;;41.00;;
84295;SDS011;74464;42.688;23.304;2023-12-20T13:41:06;100.22;;;44.97;;
84295;SDS011;74464;42.688;23.304;2023-12-20T13:43:32;94.00;;;41.88;;
84295;SDS011;74464;42.688;23.304;2023-12-20T13:45:58;111.38;;;45.85;;
84295;SDS011;74464;42.688;23.304;2023-12-20T13:48:24;108.00;;;45.63;;
84295;SDS011;74464;42.688;23.304;2023-12-20T13:50:50;101.22;;;41.95;;
84295;SDS011;74464;42.688;23.304;2023-12-20T13:53:17;88.68;;;34.97;;
84295;SDS011;74464;42.688;23.304;2023-12-20T13:55:44;86.95;;;36.65;;
84295;SDS011;74464;42.688;23.304;2023-12-20T13:58:10;96.95;;;39.58;;
84295;SDS011;74464;42.688;23.304;2023-12-20T14:00:35;85.88;;;37.63;;
84295;SDS011;74464;42.688;23.304;2023-12-20T14:05:35;82.63;;;28.92;;
84295;SDS011;74464;42.688;23.304;2023-12-20T14:08:00;106.28;;;41.55;;
84295;SDS011;74464;42.688;23.304;2023-12-20T14:10:26;111.25;;;43.33;;
84295;SDS011;74464;42.688;23.304;2023-12-20T14:12:53;116.25;;;45.47;;
84295;SDS011;74464;42.688;23.304;2023-12-20T14:15:19;116.80;;;39.67;;
84295;SDS011;74464;42.688;23.304;2023-12-20T14:17:45;103.15;;;42.05;;